Foster, Wisconsin
Current Conditions -  °F | °C
As of 9:05 AM on Tuesday 21 Oct 2014 (Local Time) from KEAU Reporting Station
Broken Clouds Broken Clouds  
Wind Chill: 38°   Ceiling: 1800
Heat Index: 41°   Visibility: 10mi
Dew Point: 37°   Wind: 5mph
Humidity: 86%   Direction: 80°E
Pressure: 30.22"   Gusts: NA
Location:  44.5464°N, 91.2123°W
Report Text: KEAU 211405Z 08004KT 10SM BKN018 05/03 A3022 RMK AO2 T00500028
Loading
Personal Weather Stations






























Interactive Weather Map
Tropical Storm Tracking
New forecast layout! Learn more

10-Day Weather Forecast

Advertisements
Track Severe Weather on mobile